Time;durP1;ratioP1;P1;durP2;ratioP2;P2;SDS_P1;SDS_P2;PMS_P1;PMS_P2;Temp;Humidity;BMP_temperature;BMP_pressure;BME280_temperature;BME280_humidity;BME280_pressure;Samples;Min_cycle;Max_cycle;Signal;HPM_P1;HPM_P2
2023/05/08 00:02:08;;;;;;;3.13;2.93;;;12.20;99.90;;;;;;5088152;28;20212;-69
2023/05/08 00:04:35;;;;;;;2.97;2.73;;;12.10;99.90;;;;;;5090233;28;20198;-70
2023/05/08 00:07:02;;;;;;;2.63;2.50;;;12.00;99.90;;;;;;5084830;28;20301;-69
2023/05/08 00:09:30;;;;;;;2.77;2.67;;;12.10;99.90;;;;;;5088960;28;20198;-69
2023/05/08 00:11:57;;;;;;;2.97;2.77;;;12.00;99.90;;;;;;5087039;28;20997;-69
2023/05/08 00:14:24;;;;;;;3.43;2.77;;;12.00;99.90;;;;;;5094862;28;20229;-71
2023/05/08 00:16:51;;;;;;;2.90;2.70;;;12.00;99.90;;;;;;5095707;28;20286;-69
2023/05/08 00:19:18;;;;;;;2.80;2.70;;;12.00;99.90;;;;;;5085114;28;20233;-69
2023/05/08 00:21:45;;;;;;;3.20;3.00;;;11.90;99.90;;;;;;5085412;28;20293;-69
2023/05/08 00:24:12;;;;;;;3.17;2.97;;;11.90;99.90;;;;;;5084852;28;20206;-69
2023/05/08 00:26:43;;;;;;;3.10;2.90;;;11.90;99.90;;;;;;5085573;28;20214;-69
2023/05/08 00:29:10;;;;;;;2.97;2.63;;;11.90;99.90;;;;;;5110868;27;20209;-69
2023/05/08 00:31:37;;;;;;;3.80;2.70;;;11.90;99.90;;;;;;5105628;28;20217;-69
2023/05/08 00:34:04;;;;;;;2.93;2.73;;;11.90;99.90;;;;;;5104893;28;20684;-69
2023/05/08 00:36:31;;;;;;;3.20;3.00;;;11.90;99.90;;;;;;5105190;28;20290;-69
2023/05/08 00:38:58;;;;;;;2.93;2.73;;;11.90;99.90;;;;;;5105204;28;20345;-69
2023/05/08 00:41:24;;;;;;;3.20;3.00;;;11.80;99.90;;;;;;5105398;28;20309;-69
2023/05/08 00:43:53;;;;;;;3.40;3.10;;;11.80;99.90;;;;;;5105000;28;20806;-70
2023/05/08 00:46:21;;;;;;;2.97;2.77;;;11.80;99.90;;;;;;5105070;28;20313;-68
2023/05/08 00:48:48;;;;;;;3.27;3.03;;;11.70;99.90;;;;;;5105098;28;20213;-69
2023/05/08 00:51:16;;;;;;;3.03;2.73;;;11.80;99.90;;;;;;5105365;28;20297;-70
2023/05/08 00:53:44;;;;;;;3.00;2.80;;;11.80;99.90;;;;;;5092982;28;20206;-69
2023/05/08 00:56:13;;;;;;;3.07;2.87;;;11.70;99.90;;;;;;5095655;28;20204;-70
2023/05/08 00:58:41;;;;;;;3.30;2.57;;;11.70;99.90;;;;;;5091330;28;20233;-70
2023/05/08 01:01:09;;;;;;;3.20;3.00;;;11.70;99.90;;;;;;5120916;28;20276;-70
2023/05/08 01:03:37;;;;;;;3.10;2.90;;;11.70;99.90;;;;;;5105550;28;20619;-70
2023/05/08 01:06:05;;;;;;;3.17;2.97;;;11.60;99.90;;;;;;5105326;28;20785;-70
2023/05/08 01:08:32;;;;;;;3.10;2.90;;;11.60;99.90;;;;;;5088299;28;20313;-70
2023/05/08 01:11:09;;;;;;;2.77;2.57;;;11.60;99.90;;;;;;5087673;28;20210;-70
2023/05/08 01:13:48;;;;;;;3.10;2.90;;;11.60;99.90;;;;;;5096491;28;20603;-70
2023/05/08 01:16:22;;;;;;;3.37;3.17;;;11.50;99.90;;;;;;5084929;28;20251;-70
2023/05/08 01:19:02;;;;;;;3.63;3.43;;;11.50;99.90;;;;;;5086077;28;20224;-70
2023/05/08 01:21:34;;;;;;;3.10;2.90;;;11.50;99.90;;;;;;5105093;28;20198;-70
2023/05/08 01:24:24;;;;;;;3.30;3.10;;;11.50;99.90;;;;;;5099343;28;20204;-70
2023/05/08 01:27:31;;;;;;;3.47;3.13;;;11.50;99.90;;;;;;5114630;28;20205;-70
2023/05/08 01:30:29;;;;;;;2.97;2.77;;;11.40;99.90;;;;;;5094258;28;20299;-71
2023/05/08 01:33:06;;;;;;;3.27;3.07;;;11.30;99.90;;;;;;5100725;28;20199;-71
2023/05/08 01:35:41;;;;;;;3.20;3.00;;;11.30;99.90;;;;;;5084712;28;20193;-71
2023/05/08 01:38:14;;;;;;;3.03;2.73;;;11.40;99.90;;;;;;5098304;28;20198;-72
2023/05/08 01:40:51;;;;;;;3.50;3.30;;;11.40;99.90;;;;;;5108837;28;20204;-71
2023/05/08 01:43:26;;;;;;;3.43;3.23;;;11.30;99.90;;;;;;5108700;28;20194;-71
2023/05/08 01:45:55;;;;;;;2.97;2.77;;;11.30;99.90;;;;;;5105101;28;20214;-71
2023/05/08 01:48:30;;;;;;;3.30;2.93;;;11.20;99.90;;;;;;5103404;28;20217;-71
2023/05/08 01:51:03;;;;;;;3.40;3.10;;;11.30;99.90;;;;;;5105011;28;20259;-71
2023/05/08 01:53:36;;;;;;;3.73;3.43;;;11.20;99.90;;;;;;5088227;28;20278;-71
2023/05/08 01:56:11;;;;;;;3.80;3.50;;;11.20;99.90;;;;;;5088097;28;20199;-69
2023/05/08 01:58:38;;;;;;;3.43;3.13;;;11.20;99.90;;;;;;5105100;28;20209;-69
2023/05/08 02:01:06;;;;;;;3.53;3.23;;;11.20;99.90;;;;;;5108139;27;20248;-70
2023/05/08 02:03:36;;;;;;;3.40;3.20;;;11.20;99.90;;;;;;5095469;28;20238;-70
2023/05/08 02:06:04;;;;;;;3.67;3.40;;;11.20;99.90;;;;;;5088266;28;20684;-69
2023/05/08 02:08:33;;;;;;;3.10;2.90;;;11.10;99.90;;;;;;5087728;28;20230;-69
2023/05/08 02:11:01;;;;;;;3.47;3.27;;;11.10;99.90;;;;;;5088067;28;20293;-71
2023/05/08 02:13:30;;;;;;;4.00;3.63;;;11.10;99.90;;;;;;5098493;28;20658;-71
2023/05/08 02:15:58;;;;;;;3.93;3.67;;;11.00;99.90;;;;;;5105673;28;20229;-70
2023/05/08 02:18:27;;;;;;;3.43;3.13;;;11.00;99.90;;;;;;5093502;28;20199;-69
2023/05/08 02:20:59;;;;;;;3.60;3.30;;;11.00;99.90;;;;;;5097811;28;20211;-69
2023/05/08 02:23:27;;;;;;;3.50;3.20;;;11.00;99.90;;;;;;5087046;28;20668;-69
2023/05/08 02:25:55;;;;;;;3.97;3.57;;;11.00;99.90;;;;;;5087662;28;20290;-69
2023/05/08 02:28:24;;;;;;;3.80;3.50;;;10.90;99.90;;;;;;5087584;28;20234;-69
2023/05/08 02:30:52;;;;;;;3.90;3.60;;;11.00;99.90;;;;;;5122978;27;20217;-69
2023/05/08 02:33:20;;;;;;;3.53;3.33;;;10.90;99.90;;;;;;5112984;27;20212;-69
2023/05/08 02:35:49;;;;;;;3.90;3.57;;;10.80;99.90;;;;;;5106591;28;20687;-69
2023/05/08 02:38:19;;;;;;;3.80;3.60;;;10.80;99.90;;;;;;5106647;28;20206;-69
2023/05/08 02:40:49;;;;;;;4.23;3.70;;;10.70;99.90;;;;;;5106516;28;20265;-69
2023/05/08 02:43:16;;;;;;;4.00;3.70;;;10.70;99.90;;;;;;5106451;28;20208;-69
2023/05/08 02:45:49;;;;;;;4.30;4.00;;;10.70;99.90;;;;;;5105680;28;20241;-69
2023/05/08 02:48:23;;;;;;;4.77;3.67;;;10.70;99.90;;;;;;5105196;28;20301;-69
2023/05/08 02:51:00;;;;;;;4.90;4.50;;;10.70;99.90;;;;;;5088788;28;20198;-69
2023/05/08 02:53:34;;;;;;;4.10;3.80;;;10.70;99.90;;;;;;5085166;28;20199;-69
2023/05/08 02:56:09;;;;;;;4.40;3.80;;;10.60;99.90;;;;;;5085256;28;20197;-69
2023/05/08 02:58:44;;;;;;;4.10;3.80;;;10.60;99.90;;;;;;5085361;28;20392;-69
2023/05/08 03:01:25;;;;;;;4.30;3.97;;;10.60;99.90;;;;;;5085737;28;20297;-69
2023/05/08 03:03:58;;;;;;;4.00;3.70;;;10.60;99.90;;;;;;5086150;28;20642;-68
2023/05/08 03:06:27;;;;;;;4.97;3.87;;;10.60;99.90;;;;;;5091132;28;20720;-68
2023/05/08 03:08:57;;;;;;;4.20;3.80;;;10.60;99.90;;;;;;5102733;28;20231;-68
2023/05/08 03:11:29;;;;;;;4.20;3.90;;;10.60;99.90;;;;;;5112909;27;20236;-68
2023/05/08 03:14:00;;;;;;;4.23;3.97;;;10.50;99.90;;;;;;5126001;27;20198;-68
2023/05/08 03:16:31;;;;;;;3.97;3.73;;;10.50;99.90;;;;;;5123083;27;20202;-68
2023/05/08 03:19:03;;;;;;;4.53;4.23;;;10.50;99.90;;;;;;5105762;28;20251;-68
2023/05/08 03:21:32;;;;;;;4.30;4.00;;;10.50;99.90;;;;;;5105779;28;20229;-68
2023/05/08 03:24:03;;;;;;;4.10;3.80;;;10.50;99.90;;;;;;5105557;28;20202;-68
2023/05/08 03:26:30;;;;;;;4.33;4.03;;;10.50;99.90;;;;;;5105610;28;20289;-68
2023/05/08 03:28:59;;;;;;;4.13;3.83;;;10.40;99.90;;;;;;5106055;28;20282;-68
2023/05/08 03:31:26;;;;;;;4.40;3.93;;;10.40;99.90;;;;;;5106403;28;20214;-68
2023/05/08 03:33:55;;;;;;;5.77;4.67;;;10.40;99.90;;;;;;5106499;28;20297;-68
2023/05/08 03:36:23;;;;;;;5.07;4.33;;;10.40;99.90;;;;;;5105976;28;20214;-68
2023/05/08 03:38:52;;;;;;;4.40;4.10;;;10.40;99.90;;;;;;5106509;27;20201;-68
2023/05/08 03:41:21;;;;;;;4.77;4.47;;;10.40;99.90;;;;;;5106221;28;20691;-68
2023/05/08 03:43:49;;;;;;;4.47;4.17;;;10.40;99.90;;;;;;5106719;28;20371;-68
2023/05/08 03:46:17;;;;;;;4.57;4.27;;;10.40;99.90;;;;;;5106396;28;20261;-68
2023/05/08 03:48:45;;;;;;;4.80;4.40;;;10.40;99.90;;;;;;5106375;28;20289;-68
2023/05/08 03:51:12;;;;;;;4.40;4.10;;;10.40;99.90;;;;;;5106225;28;20296;-68
2023/05/08 03:53:39;;;;;;;4.50;4.10;;;10.30;99.90;;;;;;5105628;28;20332;-68
2023/05/08 03:56:07;;;;;;;4.40;4.07;;;10.30;99.90;;;;;;5105877;28;20776;-68
2023/05/08 03:58:41;;;;;;;4.43;4.13;;;10.30;99.90;;;;;;5105664;28;20235;-68
2023/05/08 04:01:18;;;;;;;4.10;3.80;;;10.30;99.90;;;;;;5125237;27;20224;-68
2023/05/08 04:03:54;;;;;;;4.20;3.90;;;10.30;99.90;;;;;;5126165;27;20722;-68
2023/05/08 04:06:29;;;;;;;4.70;4.30;;;10.30;99.90;;;;;;5125969;27;20284;-68
2023/05/08 04:09:05;;;;;;;4.60;4.20;;;10.30;99.90;;;;;;5126237;27;20189;-68
2023/05/08 04:11:41;;;;;;;4.63;4.23;;;10.40;99.90;;;;;;5126154;27;20323;-68
2023/05/08 04:14:13;;;;;;;4.40;4.10;;;10.30;99.90;;;;;;5111769;27;20205;-68
2023/05/08 04:16:46;;;;;;;4.67;4.37;;;10.30;99.90;;;;;;5105542;28;20202;-68
2023/05/08 04:19:19;;;;;;;4.60;4.20;;;10.30;99.90;;;;;;5105140;28;20243;-69
2023/05/08 04:21:47;;;;;;;4.57;4.27;;;10.30;99.90;;;;;;5105080;28;20284;-68
2023/05/08 04:24:16;;;;;;;5.60;4.40;;;10.20;99.90;;;;;;5104709;28;20210;-68
2023/05/08 04:26:44;;;;;;;5.07;4.67;;;10.30;99.90;;;;;;5105594;28;20288;-68
2023/05/08 04:29:13;;;;;;;4.90;4.33;;;10.30;99.90;;;;;;5105221;28;20202;-68
2023/05/08 04:31:40;;;;;;;4.40;4.10;;;10.30;99.90;;;;;;5105737;28;20206;-68
2023/05/08 04:34:08;;;;;;;4.87;4.47;;;10.30;99.90;;;;;;5105581;28;20289;-68
2023/05/08 04:36:35;;;;;;;4.77;4.47;;;10.30;99.90;;;;;;5105184;27;20579;-68
2023/05/08 04:39:02;;;;;;;4.23;3.97;;;10.30;99.90;;;;;;5105384;28;20210;-68
2023/05/08 04:41:29;;;;;;;4.73;4.33;;;10.30;99.90;;;;;;5105492;28;20864;-68
2023/05/08 04:43:57;;;;;;;4.70;4.40;;;10.30;99.90;;;;;;5105036;28;20288;-68
2023/05/08 04:46:25;;;;;;;4.70;4.40;;;10.30;99.90;;;;;;5104991;27;20218;-68
2023/05/08 04:48:52;;;;;;;4.37;4.07;;;10.30;99.90;;;;;;5105202;28;20645;-68
2023/05/08 04:51:19;;;;;;;4.63;4.23;;;10.30;99.90;;;;;;5104703;28;20737;-68
2023/05/08 04:53:46;;;;;;;4.43;4.13;;;10.30;99.90;;;;;;5104202;28;20284;-68
2023/05/08 04:56:12;;;;;;;4.30;4.00;;;10.30;99.90;;;;;;5084725;28;20297;-68
2023/05/08 04:58:39;;;;;;;4.43;4.10;;;10.40;99.90;;;;;;5084876;28;20297;-68
2023/05/08 05:01:06;;;;;;;4.37;3.93;;;10.40;99.90;;;;;;5104510;28;20603;-68
2023/05/08 05:03:34;;;;;;;4.10;3.70;;;10.30;99.90;;;;;;5104768;28;20652;-68
2023/05/08 05:06:01;;;;;;;4.57;4.10;;;10.30;99.90;;;;;;5104852;28;20206;-69
2023/05/08 05:08:28;;;;;;;3.80;3.50;;;10.30;99.90;;;;;;5091226;28;20731;-69
2023/05/08 05:10:55;;;;;;;4.50;4.20;;;10.30;99.90;;;;;;5102784;28;20206;-69
2023/05/08 05:13:22;;;;;;;3.97;3.73;;;10.30;99.90;;;;;;5105479;28;20337;-69
2023/05/08 05:15:53;;;;;;;3.83;3.60;;;10.30;99.90;;;;;;5108969;28;20297;-69
2023/05/08 05:18:20;;;;;;;3.80;3.50;;;10.40;99.90;;;;;;5089550;27;20230;-69
2023/05/08 05:20:48;;;;;;;3.93;3.70;;;10.30;99.90;;;;;;5088170;28;20336;-69
2023/05/08 05:23:15;;;;;;;3.40;3.20;;;10.40;99.90;;;;;;5088121;28;20259;-69
2023/05/08 05:25:42;;;;;;;3.50;3.30;;;10.40;99.90;;;;;;5088293;28;20213;-69
2023/05/08 05:28:08;;;;;;;3.80;3.20;;;10.40;99.90;;;;;;5088591;28;20322;-69
2023/05/08 05:30:35;;;;;;;3.37;3.13;;;10.40;99.90;;;;;;5119382;27;20687;-69
2023/05/08 05:33:02;;;;;;;3.70;3.50;;;10.40;99.90;;;;;;5129640;27;20278;-69
2023/05/08 05:35:29;;;;;;;3.47;3.27;;;10.50;99.90;;;;;;5129068;27;20247;-69
2023/05/08 05:37:57;;;;;;;3.63;3.43;;;10.50;99.90;;;;;;5129325;27;20295;-69
2023/05/08 05:40:24;;;;;;;3.70;3.40;;;10.50;99.90;;;;;;5129033;27;20319;-69
2023/05/08 05:42:51;;;;;;;3.67;3.43;;;10.50;99.90;;;;;;5129377;27;20262;-69
2023/05/08 05:45:18;;;;;;;3.43;3.23;;;10.60;99.90;;;;;;5129061;27;20221;-69
2023/05/08 05:47:48;;;;;;;3.40;3.20;;;10.60;99.90;;;;;;5129385;27;20289;-69
2023/05/08 05:50:15;;;;;;;3.30;3.10;;;10.60;99.90;;;;;;5122696;27;20202;-69
2023/05/08 05:52:42;;;;;;;3.40;3.10;;;10.60;99.90;;;;;;5087993;28;20337;-69
2023/05/08 05:55:11;;;;;;;3.40;3.10;;;10.50;99.90;;;;;;5087736;28;20297;-69
2023/05/08 05:57:38;;;;;;;3.43;3.13;;;10.60;99.90;;;;;;5087888;28;20289;-68
2023/05/08 06:00:06;;;;;;;3.47;3.17;;;10.60;99.90;;;;;;5098866;27;20230;-69
2023/05/08 06:02:33;;;;;;;3.17;2.97;;;10.60;99.90;;;;;;5107714;28;20297;-69
2023/05/08 06:05:00;;;;;;;3.10;2.90;;;10.60;99.90;;;;;;5107719;28;20202;-69
2023/05/08 06:07:27;;;;;;;3.40;3.00;;;10.60;99.90;;;;;;5108065;28;20206;-69
2023/05/08 06:09:55;;;;;;;3.20;2.90;;;10.60;99.90;;;;;;5108225;28;20213;-69
2023/05/08 06:12:23;;;;;;;4.17;2.87;;;10.60;99.90;;;;;;5108021;28;20254;-69
2023/05/08 06:14:51;;;;;;;2.73;2.53;;;10.70;99.90;;;;;;5107960;28;20202;-69
2023/05/08 06:17:18;;;;;;;2.80;2.60;;;10.70;99.90;;;;;;5107731;28;20202;-69
2023/05/08 06:19:49;;;;;;;3.30;3.10;;;10.70;99.90;;;;;;5107907;28;20297;-68
2023/05/08 06:22:16;;;;;;;2.37;2.27;;;10.70;99.90;;;;;;5107644;28;20579;-69
2023/05/08 06:24:43;;;;;;;2.60;2.50;;;10.80;99.90;;;;;;5107230;28;20206;-69
2023/05/08 06:27:10;;;;;;;2.70;2.50;;;10.80;99.90;;;;;;5107603;28;20210;-69
2023/05/08 06:29:38;;;;;;;2.63;2.50;;;10.80;99.90;;;;;;5114948;27;20216;-69
2023/05/08 06:32:06;;;;;;;2.77;2.57;;;10.90;99.90;;;;;;5128041;27;20482;-69
2023/05/08 06:34:33;;;;;;;2.67;2.40;;;10.90;99.90;;;;;;5127690;27;20210;-69
2023/05/08 06:36:59;;;;;;;2.30;2.20;;;10.90;99.90;;;;;;5127604;27;20841;-69
2023/05/08 06:39:26;;;;;;;3.37;2.30;;;10.90;99.90;;;;;;5127170;27;20687;-69
2023/05/08 06:41:53;;;;;;;2.20;2.10;;;11.00;99.90;;;;;;5127403;27;20650;-69
2023/05/08 06:44:20;;;;;;;2.33;2.20;;;11.00;99.90;;;;;;5127484;27;20956;-69
2023/05/08 06:46:48;;;;;;;2.03;1.90;;;11.00;99.90;;;;;;5116955;27;20217;-69
2023/05/08 06:49:15;;;;;;;2.37;2.20;;;11.10;99.90;;;;;;5086734;28;20297;-69
2023/05/08 06:51:42;;;;;;;1.67;1.57;;;11.10;99.90;;;;;;5087050;28;20218;-69
2023/05/08 06:54:09;;;;;;;1.97;1.73;;;11.10;99.90;;;;;;5086756;28;20301;-69
2023/05/08 06:56:36;;;;;;;2.07;1.97;;;11.20;99.90;;;;;;5086813;28;20840;-69
2023/05/08 06:59:03;;;;;;;2.07;1.93;;;11.20;99.90;;;;;;5092091;27;20234;-68
2023/05/08 07:01:30;;;;;;;4.00;2.00;;;11.20;99.90;;;;;;5125205;27;20332;-69
2023/05/08 07:03:58;;;;;;;2.70;2.10;;;11.30;99.90;;;;;;5107057;28;20293;-69
2023/05/08 07:06:26;;;;;;;2.20;2.00;;;11.30;99.90;;;;;;5107266;28;20213;-69
2023/05/08 07:08:53;;;;;;;1.90;1.80;;;11.30;99.90;;;;;;5106732;28;20208;-68
2023/05/08 07:11:20;;;;;;;2.07;1.97;;;11.30;99.90;;;;;;5106956;28;20206;-69
2023/05/08 07:13:47;;;;;;;4.40;2.60;;;11.40;99.90;;;;;;5107491;28;20198;-69
2023/05/08 07:16:14;;;;;;;5.30;3.20;;;11.40;99.90;;;;;;5107136;28;20266;-69
2023/05/08 07:18:41;;;;;;;2.87;1.90;;;11.40;99.90;;;;;;5106844;28;20245;-69
2023/05/08 07:21:09;;;;;;;2.53;1.80;;;11.40;99.90;;;;;;5106943;28;20234;-68
2023/05/08 07:23:36;;;;;;;3.43;2.00;;;11.50;99.90;;;;;;5106556;28;20722;-69
2023/05/08 07:26:03;;;;;;;1.93;1.83;;;11.50;99.90;;;;;;5106902;28;20293;-69
2023/05/08 07:28:30;;;;;;;6.60;2.20;;;11.50;99.90;;;;;;5106988;28;20318;-69
2023/05/08 07:30:57;;;;;;;3.03;2.03;;;11.50;99.90;;;;;;5106675;28;20306;-69
2023/05/08 07:33:24;;;;;;;2.77;1.90;;;11.60;99.90;;;;;;5106264;28;20206;-68
2023/05/08 07:35:51;;;;;;;1.73;1.63;;;11.50;99.90;;;;;;5105744;28;20210;-69
2023/05/08 07:38:19;;;;;;;1.90;1.80;;;11.60;99.90;;;;;;5106246;28;20206;-69
2023/05/08 07:40:47;;;;;;;4.33;1.97;;;11.60;99.90;;;;;;5106465;27;20229;-69
2023/05/08 07:43:15;;;;;;;2.17;1.97;;;11.70;99.90;;;;;;5099756;28;20230;-69
2023/05/08 07:45:42;;;;;;;2.20;2.00;;;11.70;99.90;;;;;;5085691;28;20231;-69
2023/05/08 07:48:09;;;;;;;2.20;2.10;;;11.80;99.90;;;;;;5085899;28;20680;-69
2023/05/08 07:50:36;;;;;;;2.43;2.20;;;11.90;99.90;;;;;;5085621;28;20211;-69
2023/05/08 07:53:03;;;;;;;2.73;1.93;;;11.90;99.90;;;;;;5086164;28;20207;-69
2023/05/08 07:55:31;;;;;;;2.87;2.20;;;11.90;99.90;;;;;;5085453;28;20964;-69
2023/05/08 07:57:58;;;;;;;2.60;2.03;;;12.00;99.90;;;;;;5090507;28;20213;-69
2023/05/08 08:00:27;;;;;;;2.47;1.80;;;12.00;99.90;;;;;;5106057;28;20217;-69
2023/05/08 08:02:54;;;;;;;5.17;2.77;;;12.00;99.90;;;;;;5091872;28;20199;-69
2023/05/08 08:05:21;;;;;;;2.30;2.10;;;12.10;99.90;;;;;;5085743;28;20290;-69
2023/05/08 08:07:48;;;;;;;4.67;2.27;;;12.10;99.90;;;;;;5085550;28;20301;-69
2023/05/08 08:10:15;;;;;;;2.03;1.93;;;12.20;99.90;;;;;;5085583;28;20214;-69
2023/05/08 08:12:43;;;;;;;2.13;2.03;;;12.20;99.90;;;;;;5085326;28;20250;-68
2023/05/08 08:15:10;;;;;;;2.50;1.93;;;12.20;99.90;;;;;;5096210;28;20289;-69
2023/05/08 08:17:37;;;;;;;2.30;2.20;;;12.30;99.90;;;;;;5105639;28;20206;-69
2023/05/08 08:20:05;;;;;;;19.93;3.37;;;12.30;99.90;;;;;;5105814;27;20223;-69
2023/05/08 08:22:32;;;;;;;1.97;1.87;;;12.40;99.90;;;;;;5105098;28;20324;-69
2023/05/08 08:24:59;;;;;;;4.17;2.00;;;12.40;99.90;;;;;;5105383;28;20818;-69
2023/05/08 08:27:26;;;;;;;3.40;2.00;;;12.40;99.90;;;;;;5105757;27;20302;-69
2023/05/08 08:29:54;;;;;;;2.30;2.10;;;12.40;99.90;;;;;;5105606;28;20210;-69
2023/05/08 08:32:21;;;;;;;2.53;2.33;;;12.50;99.90;;;;;;5104968;28;20217;-68
2023/05/08 08:34:48;;;;;;;2.50;1.73;;;12.60;99.90;;;;;;5105519;28;20210;-69
2023/05/08 08:37:15;;;;;;;2.17;1.97;;;12.60;99.90;;;;;;5105216;28;20289;-69
2023/05/08 08:39:42;;;;;;;3.93;2.07;;;12.70;99.90;;;;;;5104049;28;20458;-69
2023/05/08 08:42:08;;;;;;;2.57;1.93;;;12.70;99.90;;;;;;5105333;28;20324;-69
2023/05/08 08:44:36;;;;;;;3.20;1.80;;;12.70;99.90;;;;;;5105287;28;20273;-69
2023/05/08 08:47:05;;;;;;;4.80;2.10;;;12.80;99.90;;;;;;5105663;28;20213;-69
2023/05/08 08:49:36;;;;;;;2.80;1.70;;;12.90;99.80;;;;;;5105205;28;20216;-69
2023/05/08 08:52:06;;;;;;;1.97;1.87;;;13.00;99.70;;;;;;5105469;28;20614;-69
2023/05/08 08:54:35;;;;;;;2.30;2.10;;;13.00;99.50;;;;;;5104718;28;20198;-69
2023/05/08 08:57:06;;;;;;;2.50;1.93;;;13.10;99.00;;;;;;5105244;28;20221;-69
2023/05/08 08:59:34;;;;;;;1.97;1.80;;;13.10;98.40;;;;;;5100486;28;20202;-69
2023/05/08 09:02:10;;;;;;;2.83;1.67;;;13.10;98.20;;;;;;5125348;27;20347;-69
2023/05/08 09:04:37;;;;;;;3.10;1.90;;;13.20;98.50;;;;;;5125376;27;21016;-69
2023/05/08 09:07:07;;;;;;;4.10;1.80;;;13.20;98.70;;;;;;5125721;27;20207;-69
2023/05/08 09:09:36;;;;;;;2.87;1.97;;;13.30;97.60;;;;;;5125138;27;20941;-69
2023/05/08 09:12:03;;;;;;;1.93;1.80;;;13.30;97.90;;;;;;5125456;27;20320;-69
2023/05/08 09:14:30;;;;;;;1.90;1.80;;;13.30;97.70;;;;;;5125292;27;20204;-69
2023/05/08 09:16:57;;;;;;;2.50;1.80;;;13.40;97.30;;;;;;5125277;27;20857;-69
2023/05/08 09:19:27;;;;;;;2.33;1.80;;;13.50;97.20;;;;;;5125385;27;20668;-69
2023/05/08 09:21:54;;;;;;;2.00;1.90;;;13.50;97.00;;;;;;5125205;27;20588;-69
2023/05/08 09:24:22;;;;;;;3.37;1.90;;;13.60;97.20;;;;;;5125423;27;20208;-69
2023/05/08 09:26:49;;;;;;;3.13;2.70;;;13.70;98.50;;;;;;5125734;27;20270;-69
2023/05/08 09:29:18;;;;;;;2.17;2.00;;;13.80;98.40;;;;;;5121099;27;20206;-69
2023/05/08 09:31:47;;;;;;;2.03;1.83;;;13.80;98.20;;;;;;5105024;28;20202;-69
2023/05/08 09:34:25;;;;;;;2.13;1.93;;;13.80;97.10;;;;;;5105130;28;20206;-69
2023/05/08 09:36:54;;;;;;;3.00;1.73;;;13.90;96.80;;;;;;5104602;28;20225;-69
2023/05/08 09:39:25;;;;;;;2.80;1.83;;;14.00;96.10;;;;;;5104631;28;20729;-69
2023/05/08 09:41:58;;;;;;;3.80;1.57;;;14.00;95.90;;;;;;5104837;28;20713;-69
2023/05/08 09:44:25;;;;;;;1.60;1.60;;;14.10;96.00;;;;;;5104833;28;20336;-69
2023/05/08 09:47:09;;;;;;;1.80;1.70;;;14.10;95.90;;;;;;5105429;28;20660;-69
2023/05/08 09:49:36;;;;;;;2.07;1.97;;;14.20;96.30;;;;;;5105205;28;20627;-69
2023/05/08 09:52:05;;;;;;;2.70;1.93;;;14.20;96.10;;;;;;5104404;28;20259;-69
2023/05/08 09:54:32;;;;;;;2.23;1.90;;;14.30;95.90;;;;;;5097708;28;20685;-69
2023/05/08 09:56:59;;;;;;;5.73;1.87;;;14.40;95.80;;;;;;5084246;28;20590;-69
2023/05/08 09:59:27;;;;;;;3.27;1.90;;;14.50;96.10;;;;;;5091317;28;20296;-69
2023/05/08 10:01:55;;;;;;;2.03;1.80;;;14.50;96.10;;;;;;5108528;28;20328;-69
2023/05/08 10:04:32;;;;;;;2.00;1.90;;;14.60;96.90;;;;;;5108465;28;20205;-69
2023/05/08 10:06:59;;;;;;;4.20;1.93;;;14.60;97.20;;;;;;5108529;28;20242;-68
2023/05/08 10:09:27;;;;;;;3.40;2.30;;;14.70;96.80;;;;;;5108166;28;20210;-69
2023/05/08 10:11:55;;;;;;;2.90;1.93;;;14.80;96.10;;;;;;5108198;28;20325;-69
2023/05/08 10:14:23;;;;;;;1.90;1.80;;;14.90;95.80;;;;;;5108016;28;20672;-69
2023/05/08 10:16:51;;;;;;;1.97;1.87;;;14.90;95.40;;;;;;5108846;28;20321;-69
2023/05/08 10:19:20;;;;;;;1.87;1.77;;;15.00;96.70;;;;;;5108365;28;20301;-69
2023/05/08 10:21:49;;;;;;;2.73;1.60;;;15.10;96.10;;;;;;5108122;28;20226;-69
2023/05/08 10:24:17;;;;;;;4.33;1.50;;;15.10;95.70;;;;;;5108366;28;20210;-69
2023/05/08 10:26:56;;;;;;;2.10;1.90;;;15.20;94.80;;;;;;5108418;28;20288;-69
2023/05/08 10:29:32;;;;;;;1.80;1.70;;;15.20;95.30;;;;;;5108215;28;20217;-69
2023/05/08 10:32:00;;;;;;;1.50;1.40;;;15.30;94.70;;;;;;5101790;27;20218;-69
2023/05/08 10:34:31;;;;;;;1.60;1.50;;;15.40;93.60;;;;;;5087620;28;20203;-69
2023/05/08 10:36:58;;;;;;;1.90;1.40;;;15.50;93.50;;;;;;5087937;28;20222;-69
2023/05/08 10:39:27;;;;;;;1.97;1.43;;;15.60;93.10;;;;;;5087066;28;20237;-69
2023/05/08 10:41:55;;;;;;;1.93;1.80;;;15.60;92.00;;;;;;5087355;28;20329;-69
2023/05/08 10:44:23;;;;;;;1.83;1.73;;;15.80;92.10;;;;;;5087531;28;20233;-69
2023/05/08 10:46:55;;;;;;;1.80;1.70;;;15.80;93.20;;;;;;5092943;27;20241;-69
2023/05/08 10:49:30;;;;;;;1.70;1.60;;;15.90;93.50;;;;;;5108269;27;20259;-69
2023/05/08 10:52:09;;;;;;;1.73;1.63;;;16.00;93.10;;;;;;5107436;28;20205;-69
2023/05/08 10:54:48;;;;;;;3.03;1.53;;;16.10;92.10;;;;;;5107652;28;20271;-69
2023/05/08 10:57:16;;;;;;;3.00;2.00;;;16.20;91.40;;;;;;5107181;28;20208;-69
2023/05/08 10:59:46;;;;;;;2.13;1.80;;;16.30;91.30;;;;;;5107820;27;20668;-69
2023/05/08 11:02:14;;;;;;;2.10;1.83;;;16.40;91.50;;;;;;5106893;28;20791;-69
2023/05/08 11:04:41;;;;;;;2.97;1.63;;;16.50;91.50;;;;;;5107582;28;20258;-69
2023/05/08 11:07:07;;;;;;;2.27;1.40;;;16.60;91.20;;;;;;5106959;28;20205;-69
2023/05/08 11:09:47;;;;;;;3.30;1.90;;;16.70;91.00;;;;;;5107034;28;20310;-69
2023/05/08 11:12:22;;;;;;;1.60;1.50;;;16.80;91.20;;;;;;5105810;28;20247;-69
2023/05/08 11:15:01;;;;;;;2.97;1.53;;;16.90;90.00;;;;;;5107008;28;20273;-69
2023/05/08 11:17:28;;;;;;;1.60;1.50;;;17.00;90.60;;;;;;5106495;28;20680;-69
2023/05/08 11:19:57;;;;;;;1.97;1.60;;;17.10;90.50;;;;;;5107261;28;20638;-69
2023/05/08 11:22:27;;;;;;;1.80;1.70;;;17.20;90.40;;;;;;5106837;28;20913;-69
2023/05/08 11:24:56;;;;;;;3.77;2.00;;;17.30;90.80;;;;;;5107083;28;20252;-70
2023/05/08 11:27:39;;;;;;;2.13;1.60;;;17.40;90.40;;;;;;5106237;28;20210;-69
2023/05/08 11:30:19;;;;;;;1.70;1.50;;;17.40;90.60;;;;;;5106987;28;20202;-69
2023/05/08 11:33:12;;;;;;;2.13;1.60;;;17.50;89.20;;;;;;5106957;28;20198;-69
2023/05/08 11:35:47;;;;;;;1.63;1.53;;;17.60;89.60;;;;;;5106959;28;20190;-69
2023/05/08 11:38:16;;;;;;;1.67;1.27;;;17.70;88.60;;;;;;5106718;28;20189;-69
2023/05/08 11:40:48;;;;;;;1.73;1.60;;;17.80;88.50;;;;;;5107018;28;20210;-69
2023/05/08 11:43:54;;;;;;;1.83;1.57;;;17.80;89.80;;;;;;5112827;27;20233;-69
2023/05/08 11:46:22;;;;;;;2.50;1.73;;;18.00;89.60;;;;;;5122956;27;20209;-69
2023/05/08 11:48:58;;;;;;;2.00;1.57;;;18.10;88.50;;;;;;5106600;28;20221;-69
2023/05/08 11:51:25;;;;;;;1.80;1.70;;;18.10;89.50;;;;;;5106313;28;20225;-69
2023/05/08 11:53:51;;;;;;;1.40;1.40;;;18.30;90.40;;;;;;5106540;28;20753;-69
2023/05/08 11:56:18;;;;;;;3.00;1.60;;;18.40;90.10;;;;;;5106761;28;20297;-70
2023/05/08 11:58:45;;;;;;;1.60;1.50;;;18.50;90.60;;;;;;5106625;28;20664;-69
2023/05/08 12:01:19;;;;;;;1.67;1.53;;;18.60;89.90;;;;;;5086414;28;20286;-69
2023/05/08 12:03:47;;;;;;;1.57;1.50;;;18.50;89.30;;;;;;5085870;28;20821;-69
2023/05/08 12:06:14;;;;;;;1.70;1.60;;;18.70;89.60;;;;;;5085433;28;20301;-69
2023/05/08 12:08:41;;;;;;;3.27;2.20;;;18.80;88.20;;;;;;5085832;28;20260;-69
2023/05/08 12:11:09;;;;;;;2.30;1.80;;;19.00;89.50;;;;;;5085245;28;20294;-70
2023/05/08 12:13:36;;;;;;;4.93;1.70;;;19.10;88.10;;;;;;5085703;28;20205;-69
2023/05/08 12:16:03;;;;;;;1.20;1.20;;;19.10;86.60;;;;;;5104559;28;20301;-69
2023/05/08 12:18:29;;;;;;;5.10;1.60;;;19.20;83.30;;;;;;5105905;28;20293;-69
2023/05/08 12:21:00;;;;;;;1.97;1.77;;;19.20;84.20;;;;;;5105801;28;20568;-69
2023/05/08 12:23:28;;;;;;;4.20;1.90;;;19.20;84.20;;;;;;5105668;28;20228;-69
2023/05/08 12:25:58;;;;;;;2.33;1.90;;;19.30;84.60;;;;;;5087794;28;20211;-69
2023/05/08 12:28:25;;;;;;;2.40;1.80;;;19.40;84.80;;;;;;5086175;28;20206;-69
2023/05/08 12:30:52;;;;;;;1.80;1.70;;;19.40;85.70;;;;;;5103675;28;20328;-69
2023/05/08 12:33:20;;;;;;;1.77;1.67;;;19.50;85.40;;;;;;5106112;28;20202;-70
2023/05/08 12:35:47;;;;;;;3.50;1.90;;;19.70;84.00;;;;;;5105681;28;20209;-69
2023/05/08 12:38:15;;;;;;;1.87;1.70;;;19.80;84.90;;;;;;5106038;28;20308;-69
2023/05/08 12:40:43;;;;;;;4.27;1.70;;;19.80;83.60;;;;;;5105989;28;20226;-69
2023/05/08 12:43:11;;;;;;;1.52;1.50;;;19.90;84.40;;;;;;5105542;28;20241;-69
2023/05/08 12:45:39;;;;;;;1.70;1.60;;;20.00;84.50;;;;;;5105783;28;20202;-69
2023/05/08 12:48:08;;;;;;;4.53;2.00;;;20.10;83.90;;;;;;5105509;28;20217;-69
2023/05/08 12:50:36;;;;;;;1.98;1.60;;;20.20;83.30;;;;;;5105569;28;20835;-69
2023/05/08 12:53:04;;;;;;;1.77;1.37;;;20.20;83.20;;;;;;5105444;28;20297;-69
2023/05/08 12:55:34;;;;;;;1.65;1.55;;;20.40;82.80;;;;;;5105268;28;20754;-70
2023/05/08 12:58:02;;;;;;;1.65;1.55;;;20.50;82.10;;;;;;5105660;28;20279;-70
2023/05/08 13:00:40;;;;;;;1.98;1.88;;;20.50;81.00;;;;;;5091156;28;20211;-69